Time;durP1;ratioP1;P1;durP2;ratioP2;P2;SDS_P1;SDS_P2;PMS_P1;PMS_P2;Temp;Humidity;BMP_temperature;BMP_pressure;BME280_temperature;BME280_humidity;BME280_pressure;Samples;Min_cycle;Max_cycle;Signal;HPM_P1;HPM_P2
2022/03/25 00:00:02;;;;;;;23.73;16.90;;;;;;;5.86;68.17;101634.03;5122393;28;20573;-68
2022/03/25 00:02:28;;;;;;;26.87;15.93;;;;;;;5.71;68.37;101633.03;5103998;27;20474;-68
2022/03/25 00:04:55;;;;;;;24.57;16.10;;;;;;;5.61;68.85;101629.09;5102499;28;20439;-67
2022/03/25 00:07:22;;;;;;;26.57;17.23;;;;;;;5.55;69.12;101624.06;5119897;28;20489;-67
2022/03/25 00:09:50;;;;;;;29.40;16.70;;;;;;;5.32;69.27;101628.69;5121955;28;20480;-68
2022/03/25 00:12:17;;;;;;;25.73;16.20;;;;;;;5.54;69.21;101623.22;5121217;27;20481;-68
2022/03/25 00:14:44;;;;;;;24.40;16.60;;;;;;;5.55;69.39;101632.88;5122166;28;20512;-68
2022/03/25 00:17:10;;;;;;;35.70;18.30;;;;;;;5.61;69.56;101626.44;5121514;27;20470;-68
2022/03/25 00:19:37;;;;;;;29.30;18.10;;;;;;;5.52;69.21;101624.22;5121501;28;20461;-68
2022/03/25 00:22:04;;;;;;;33.03;17.40;;;;;;;5.47;69.20;101621.81;5121292;27;20478;-68
2022/03/25 00:24:31;;;;;;;28.90;17.63;;;;;;;5.35;69.78;101617.94;5122624;28;20777;-67
2022/03/25 00:26:59;;;;;;;27.87;17.50;;;;;;;5.38;69.83;101630.19;5121825;27;20531;-68
2022/03/25 00:29:26;;;;;;;34.13;18.20;;;;;;;5.38;69.59;101631.06;5119272;28;20449;-68
2022/03/25 00:31:52;;;;;;;30.93;19.30;;;;;;;5.31;69.61;101628.75;5100461;27;20575;-68
2022/03/25 00:34:19;;;;;;;25.43;17.50;;;;;;;5.27;70.18;101628.03;5099611;28;20448;-67
2022/03/25 00:36:46;;;;;;;35.60;19.60;;;;;;;5.27;70.30;101636.84;5100832;28;20513;-67
2022/03/25 00:39:13;;;;;;;33.87;19.80;;;;;;;5.20;70.52;101622.16;5101579;28;20516;-68
2022/03/25 00:41:39;;;;;;;29.03;18.03;;;;;;;5.25;70.47;101624.59;5099836;28;20506;-68
2022/03/25 00:44:08;;;;;;;37.07;18.40;;;;;;;5.26;70.40;101629.00;5101260;28;20457;-68
2022/03/25 00:46:34;;;;;;;33.67;18.37;;;;;;;5.22;70.28;101619.44;5099702;28;20502;-68
2022/03/25 00:49:01;;;;;;;34.53;18.73;;;;;;;5.17;70.38;101613.50;5099671;28;20440;-68
2022/03/25 00:51:28;;;;;;;31.03;18.73;;;;;;;5.04;70.57;101615.88;5100277;28;20502;-67
2022/03/25 00:53:55;;;;;;;34.57;19.90;;;;;;;5.06;70.64;101619.31;5101639;28;21000;-68
2022/03/25 00:56:22;;;;;;;34.10;20.50;;;;;;;4.98;70.66;101618.78;5100004;28;20479;-67
2022/03/25 00:58:49;;;;;;;27.60;17.57;;;;;;;4.85;71.09;101619.34;5100423;28;20524;-67
2022/03/25 01:01:17;;;;;;;32.17;18.30;;;;;;;4.92;70.81;101622.59;5099677;27;20483;-67
2022/03/25 01:03:44;;;;;;;28.87;18.00;;;;;;;4.92;70.57;101616.44;5100743;28;20462;-68
2022/03/25 01:06:11;;;;;;;30.90;18.50;;;;;;;4.91;70.63;101604.97;5100072;28;20523;-68
2022/03/25 01:08:37;;;;;;;32.20;19.17;;;;;;;4.81;71.25;101614.25;5100565;28;20439;-67
2022/03/25 01:11:05;;;;;;;32.83;19.67;;;;;;;4.80;71.52;101610.75;5099637;28;20489;-67
2022/03/25 01:13:33;;;;;;;28.13;18.50;;;;;;;4.88;71.50;101607.78;5100698;28;20501;-68
2022/03/25 01:16:01;;;;;;;31.70;17.87;;;;;;;4.80;71.58;101617.84;5097237;28;20462;-67
2022/03/25 01:18:29;;;;;;;32.30;17.77;;;;;;;4.74;71.72;101618.13;5099414;28;20461;-68
2022/03/25 01:20:57;;;;;;;32.40;17.30;;;;;;;4.80;71.42;101618.72;5099727;27;20761;-68
2022/03/25 01:23:24;;;;;;;29.17;15.87;;;;;;;4.79;71.38;101617.00;5100300;28;20471;-68
2022/03/25 01:25:51;;;;;;;31.20;18.37;;;;;;;4.77;71.39;101616.19;5100087;28;20467;-68
2022/03/25 01:28:18;;;;;;;26.67;17.80;;;;;;;4.70;71.38;101617.41;5100387;28;20554;-67
2022/03/25 01:30:46;;;;;;;28.77;17.70;;;;;;;4.65;71.23;101617.63;5098666;28;20490;-67
2022/03/25 01:33:12;;;;;;;28.80;18.03;;;;;;;4.59;71.37;101623.19;5099888;28;20997;-67
2022/03/25 01:35:41;;;;;;;27.90;17.30;;;;;;;4.57;71.53;101617.09;5099826;28;20471;-67
2022/03/25 01:38:08;;;;;;;28.10;16.90;;;;;;;4.56;71.66;101617.16;5100300;28;20937;-67
2022/03/25 01:40:35;;;;;;;27.53;16.80;;;;;;;4.60;71.77;101621.38;5099017;28;20471;-66
2022/03/25 01:43:01;;;;;;;29.73;16.60;;;;;;;4.53;71.73;101618.16;5100656;28;20459;-67
2022/03/25 01:45:31;;;;;;;29.00;16.80;;;;;;;4.51;71.69;101614.72;5098592;27;20536;-67
2022/03/25 01:47:58;;;;;;;26.87;15.60;;;;;;;4.36;71.99;101608.31;5100368;28;20471;-67
2022/03/25 01:50:26;;;;;;;27.53;17.80;;;;;;;4.20;72.77;101608.13;5098758;27;20496;-68
2022/03/25 01:52:54;;;;;;;25.97;16.33;;;;;;;4.11;73.21;101609.38;5100227;28;20483;-67
2022/03/25 01:55:26;;;;;;;30.00;17.30;;;;;;;4.10;73.36;101610.31;5099614;28;20473;-67
2022/03/25 01:57:56;;;;;;;32.23;17.90;;;;;;;4.13;73.61;101609.28;5100329;28;20942;-67
2022/03/25 02:00:23;;;;;;;25.00;16.33;;;;;;;4.16;73.37;101614.47;5098388;27;20486;-67
2022/03/25 02:02:50;;;;;;;33.03;16.97;;;;;;;4.17;73.37;101617.97;5098444;28;20985;-67
2022/03/25 02:05:18;;;;;;;29.77;18.40;;;;;;;4.24;73.34;101616.81;5099037;28;20448;-68
2022/03/25 02:07:45;;;;;;;29.83;18.93;;;;;;;4.24;73.11;101616.81;5099490;28;20435;-67
2022/03/25 02:10:14;;;;;;;28.80;18.40;;;;;;;4.17;73.17;101620.59;5098969;28;21108;-67
2022/03/25 02:12:42;;;;;;;34.00;17.37;;;;;;;4.22;72.78;101627.44;5099387;28;20458;-67
2022/03/25 02:15:09;;;;;;;26.57;16.67;;;;;;;4.23;72.62;101625.66;5098947;27;20861;-67
2022/03/25 02:17:37;;;;;;;27.80;17.83;;;;;;;4.19;72.79;101626.72;5099309;28;20466;-67
2022/03/25 02:20:08;;;;;;;24.30;15.50;;;;;;;4.12;72.78;101618.19;5099359;28;20864;-68
2022/03/25 02:22:36;;;;;;;26.83;16.37;;;;;;;4.03;73.19;101622.09;5098953;28;20837;-68
2022/03/25 02:25:08;;;;;;;37.20;18.37;;;;;;;4.01;73.29;101623.94;5100027;28;20535;-68
2022/03/25 02:27:37;;;;;;;27.27;17.70;;;;;;;3.87;73.74;101623.63;5099343;28;20514;-68
2022/03/25 02:30:06;;;;;;;25.40;18.67;;;;;;;3.94;73.84;101625.97;5099179;28;20527;-68
2022/03/25 02:32:33;;;;;;;29.93;17.60;;;;;;;3.93;73.72;101626.88;5098444;28;20474;-68
2022/03/25 02:34:59;;;;;;;26.83;17.70;;;;;;;3.95;73.68;101627.69;5099538;28;20485;-68
2022/03/25 02:37:26;;;;;;;27.67;17.83;;;;;;;3.96;73.74;101623.25;5098964;28;20686;-68
2022/03/25 02:39:55;;;;;;;26.20;17.60;;;;;;;4.01;73.41;101623.06;5099493;28;20480;-67
2022/03/25 02:42:21;;;;;;;30.30;16.70;;;;;;;4.03;72.92;101622.09;5097971;28;20543;-67
2022/03/25 02:44:48;;;;;;;34.33;18.40;;;;;;;4.03;72.86;101624.72;5099319;28;20519;-68
2022/03/25 02:47:15;;;;;;;28.20;19.67;;;;;;;4.03;72.99;101624.72;5098792;28;20511;-68
2022/03/25 02:49:42;;;;;;;41.40;18.30;;;;;;;3.93;73.32;101626.88;5099151;28;20471;-67
2022/03/25 02:52:11;;;;;;;30.47;17.67;;;;;;;3.88;73.45;101635.94;5098328;28;20487;-68
2022/03/25 02:54:38;;;;;;;27.87;17.20;;;;;;;3.84;73.58;101634.38;5100048;28;20431;-68
2022/03/25 02:57:06;;;;;;;40.00;17.10;;;;;;;3.75;73.70;101630.31;5100970;28;20475;-67
2022/03/25 02:59:33;;;;;;;30.80;18.10;;;;;;;3.71;73.69;101623.41;5102841;28;20891;-67
2022/03/25 03:01:59;;;;;;;26.53;17.10;;;;;;;3.54;74.59;101624.97;5101491;28;20509;-67
2022/03/25 03:04:27;;;;;;;33.90;19.50;;;;;;;3.45;75.71;101627.09;5103015;28;20439;-67
2022/03/25 03:06:54;;;;;;;29.70;18.23;;;;;;;3.47;75.82;101627.91;5101971;28;20501;-67
2022/03/25 03:09:20;;;;;;;27.83;19.27;;;;;;;3.48;75.79;101629.63;5102618;28;20451;-67
2022/03/25 03:11:47;;;;;;;29.10;17.87;;;;;;;3.58;75.50;101629.19;5095408;27;20836;-67
2022/03/25 03:14:15;;;;;;;27.80;17.97;;;;;;;3.65;75.22;101627.16;5083320;28;20470;-67
2022/03/25 03:16:42;;;;;;;26.43;17.87;;;;;;;3.69;75.07;101627.91;5085492;28;20486;-67
2022/03/25 03:19:09;;;;;;;27.97;17.90;;;;;;;3.72;74.80;101626.00;5102962;28;20443;-68
2022/03/25 03:21:35;;;;;;;28.43;18.80;;;;;;;3.72;74.61;101625.13;5102039;28;20479;-67
2022/03/25 03:24:02;;;;;;;30.33;18.87;;;;;;;3.67;74.65;101627.97;5102996;28;20762;-67
2022/03/25 03:26:29;;;;;;;31.57;18.63;;;;;;;3.74;74.43;101631.22;5102469;28;20501;-67
2022/03/25 03:28:55;;;;;;;28.77;18.57;;;;;;;3.68;74.24;101628.81;5103228;28;20837;-66
2022/03/25 03:31:24;;;;;;;28.40;18.13;;;;;;;3.63;74.00;101631.66;5101681;28;20471;-67
2022/03/25 03:33:50;;;;;;;33.57;18.80;;;;;;;3.62;73.85;101632.56;5102284;28;20463;-66
2022/03/25 03:36:17;;;;;;;26.00;17.90;;;;;;;3.56;73.97;101630.19;5101383;28;20521;-66
2022/03/25 03:38:44;;;;;;;30.50;18.10;;;;;;;3.49;74.01;101631.34;5102357;28;20447;-67
2022/03/25 03:41:10;;;;;;;29.90;17.53;;;;;;;3.42;74.21;101637.78;5101235;28;20581;-67
2022/03/25 03:43:37;;;;;;;26.70;16.83;;;;;;;3.42;73.96;101632.50;5101703;28;20455;-67
2022/03/25 03:46:04;;;;;;;37.93;20.83;;;;;;;3.33;74.22;101634.59;5101414;28;20508;-67
2022/03/25 03:48:33;;;;;;;34.73;20.13;;;;;;;3.25;75.25;101628.75;5102298;28;20481;-66
2022/03/25 03:50:59;;;;;;;36.23;19.10;;;;;;;3.28;75.45;101625.13;5101235;28;20523;-66
2022/03/25 03:53:26;;;;;;;34.23;19.17;;;;;;;3.31;75.70;101631.13;5101879;28;20465;-66
2022/03/25 03:55:53;;;;;;;36.03;20.07;;;;;;;3.30;75.50;101629.44;5101466;28;20524;-66
2022/03/25 03:58:22;;;;;;;39.97;21.40;;;;;;;3.29;75.38;101625.06;5102990;28;20431;-66
2022/03/25 04:00:49;;;;;;;34.23;20.10;;;;;;;3.22;75.43;101625.38;5100534;27;20512;-66
2022/03/25 04:03:16;;;;;;;33.70;20.43;;;;;;;3.23;75.77;101625.31;5083179;28;20474;-66
2022/03/25 04:05:44;;;;;;;31.67;19.47;;;;;;;3.23;75.63;101621.78;5095272;27;20463;-66
2022/03/25 04:08:11;;;;;;;33.57;19.50;;;;;;;3.25;75.45;101620.81;5102254;28;20488;-67
2022/03/25 04:10:38;;;;;;;34.17;20.07;;;;;;;3.25;75.26;101626.09;5100929;28;20463;-67
2022/03/25 04:13:04;;;;;;;30.03;19.80;;;;;;;3.24;74.96;101629.66;5101961;28;20451;-66
2022/03/25 04:15:31;;;;;;;32.33;17.40;;;;;;;3.17;74.81;101634.31;5100286;28;20466;-67
2022/03/25 04:17:58;;;;;;;30.63;18.47;;;;;;;3.15;74.75;101630.88;5102336;28;20431;-67
2022/03/25 04:20:26;;;;;;;30.83;18.87;;;;;;;3.13;74.63;101632.72;5101037;28;20516;-67
2022/03/25 04:22:54;;;;;;;26.53;17.67;;;;;;;3.08;74.99;101634.69;5101087;28;20578;-67
2022/03/25 04:25:20;;;;;;;26.47;16.77;;;;;;;3.06;75.33;101618.03;5101725;28;20711;-67
2022/03/25 04:27:51;;;;;;;31.03;18.97;;;;;;;3.03;75.31;101636.63;5101136;28;20467;-67
2022/03/25 04:30:20;;;;;;;27.27;16.63;;;;;;;2.97;75.80;101636.88;5100392;28;20490;-68
2022/03/25 04:32:46;;;;;;;28.43;18.13;;;;;;;3.04;75.71;101637.47;5101520;28;20443;-68
2022/03/25 04:35:13;;;;;;;29.70;18.33;;;;;;;2.87;76.13;101635.50;5100512;28;20443;-68
2022/03/25 04:37:41;;;;;;;33.67;20.60;;;;;;;2.80;76.33;101641.00;5100745;28;20964;-68
2022/03/25 04:40:12;;;;;;;28.90;18.13;;;;;;;2.78;76.38;101641.97;5100993;28;20447;-68
2022/03/25 04:42:39;;;;;;;32.63;18.33;;;;;;;2.74;76.41;101640.34;5068752;28;20506;-68
2022/03/25 04:45:06;;;;;;;29.50;19.10;;;;;;;2.72;76.36;101640.41;5100594;28;20451;-67
2022/03/25 04:47:33;;;;;;;30.53;18.80;;;;;;;2.71;76.35;101640.47;5101021;28;20498;-66
2022/03/25 04:50:00;;;;;;;31.70;18.80;;;;;;;2.71;76.68;101640.47;5100193;28;20498;-67
2022/03/25 04:52:27;;;;;;;34.23;19.10;;;;;;;2.78;76.63;101648.13;5099934;28;20514;-67
2022/03/25 04:54:53;;;;;;;27.57;17.90;;;;;;;2.85;76.51;101646.13;5100721;28;20439;-67
2022/03/25 04:57:22;;;;;;;33.87;20.40;;;;;;;2.88;76.35;101648.63;5100468;28;20528;-67
2022/03/25 04:59:49;;;;;;;30.60;18.37;;;;;;;2.87;76.12;101646.91;5099982;28;20449;-67
2022/03/25 05:02:16;;;;;;;32.83;20.30;;;;;;;2.85;76.03;101648.75;5099856;28;20510;-66
2022/03/25 05:04:42;;;;;;;36.23;20.53;;;;;;;2.80;75.83;101650.69;5098772;28;20511;-67
2022/03/25 05:07:14;;;;;;;30.13;20.00;;;;;;;2.74;76.30;101653.56;5094844;28;20811;-67
2022/03/25 05:09:41;;;;;;;31.80;19.83;;;;;;;2.63;76.83;101648.66;5097989;28;20577;-69
2022/03/25 05:12:08;;;;;;;35.17;19.87;;;;;;;2.62;77.24;101650.47;5080233;28;20464;-67
2022/03/25 05:14:36;;;;;;;31.07;19.53;;;;;;;2.71;77.30;101653.66;5080754;28;20506;-67
2022/03/25 05:17:03;;;;;;;33.50;19.90;;;;;;;2.74;77.47;101651.78;5084464;28;20546;-67
2022/03/25 05:19:30;;;;;;;35.47;19.10;;;;;;;2.77;77.28;101649.03;5092304;28;21033;-68
2022/03/25 05:21:57;;;;;;;33.70;20.57;;;;;;;2.86;77.17;101655.75;5060010;28;20557;-68
2022/03/25 05:24:23;;;;;;;32.30;20.00;;;;;;;2.94;76.91;101650.19;5095359;28;20543;-67
2022/03/25 05:26:50;;;;;;;37.20;21.10;;;;;;;2.92;76.54;101647.59;5099730;28;20475;-67
2022/03/25 05:29:16;;;;;;;32.93;19.83;;;;;;;2.91;76.43;101648.50;5093086;28;20466;-67
2022/03/25 05:31:45;;;;;;;36.87;20.30;;;;;;;2.96;76.28;101651.84;5080003;28;20475;-68
2022/03/25 05:34:12;;;;;;;29.97;19.50;;;;;;;3.05;75.96;101655.06;5085028;28;20717;-67
2022/03/25 05:36:38;;;;;;;34.13;21.50;;;;;;;3.15;75.54;101657.31;5098456;28;20471;-68
2022/03/25 05:39:06;;;;;;;35.50;23.07;;;;;;;3.29;75.17;101663.84;5100153;28;20463;-68
2022/03/25 05:41:33;;;;;;;33.20;19.97;;;;;;;3.37;74.63;101665.28;5100146;27;20509;-67
2022/03/25 05:44:00;;;;;;;34.33;18.70;;;;;;;3.41;74.27;101673.94;5098148;28;20460;-67
2022/03/25 05:46:27;;;;;;;33.63;18.67;;;;;;;3.49;73.82;101663.94;5099246;28;20554;-67
2022/03/25 05:48:55;;;;;;;34.07;20.37;;;;;;;3.57;73.31;101668.91;5098687;28;20443;-67
2022/03/25 05:51:22;;;;;;;36.13;20.07;;;;;;;3.64;72.83;101667.75;5094102;28;20495;-66
2022/03/25 05:53:48;;;;;;;28.80;18.17;;;;;;;3.82;72.19;101674.09;5099140;28;20522;-67
2022/03/25 05:56:15;;;;;;;28.53;18.70;;;;;;;3.93;71.66;101668.38;5090592;28;20550;-67
2022/03/25 05:58:41;;;;;;;35.93;19.00;;;;;;;4.01;71.48;101673.34;5099897;28;20455;-67
2022/03/25 06:01:08;;;;;;;39.40;20.53;;;;;;;4.19;71.14;101667.28;5096815;28;20554;-67
2022/03/25 06:03:35;;;;;;;31.23;19.13;;;;;;;4.64;70.30;101675.97;5074268;28;20495;-67
2022/03/25 06:06:05;;;;;;;32.53;18.80;;;;;;;5.50;67.69;101679.13;5111106;28;20476;-68
2022/03/25 06:08:32;;;;;;;40.43;20.60;;;;;;;5.88;64.79;101677.28;5096652;28;20443;-68
2022/03/25 06:10:59;;;;;;;33.93;21.63;;;;;;;6.09;63.11;101683.34;5079114;28;20552;-67
2022/03/25 06:13:27;;;;;;;29.03;19.77;;;;;;;6.36;62.01;101691.75;5079388;28;20572;-69
2022/03/25 06:15:54;;;;;;;30.03;19.80;;;;;;;6.88;60.35;101688.19;5077228;28;20498;-66
2022/03/25 06:18:21;;;;;;;30.47;20.10;;;;;;;7.52;58.40;101688.28;5087645;28;20532;-70
2022/03/25 06:20:48;;;;;;;29.20;19.07;;;;;;;7.81;57.28;101685.78;5097588;28;20491;-67
2022/03/25 06:23:16;;;;;;;29.63;18.80;;;;;;;8.10;56.20;101686.75;5097631;28;20586;-67
2022/03/25 06:25:43;;;;;;;37.37;19.00;;;;;;;8.15;55.50;101691.84;5100197;28;20492;-68
2022/03/25 06:28:09;;;;;;;33.50;19.47;;;;;;;8.71;54.04;101697.44;5084274;28;20508;-68
2022/03/25 06:30:38;;;;;;;28.30;19.13;;;;;;;8.90;53.64;101695.34;5078547;28;20494;-69
2022/03/25 06:33:05;;;;;;;34.30;21.63;;;;;;;8.78;53.51;101702.28;5102099;28;20911;-69
2022/03/25 06:35:32;;;;;;;26.20;19.77;;;;;;;9.82;51.44;101704.69;5101694;28;20470;-71
2022/03/25 06:37:59;;;;;;;26.63;19.53;;;;;;;10.62;49.29;101699.38;5102901;28;20451;-69
2022/03/25 06:40:27;;;;;;;31.27;21.70;;;;;;;11.29;47.25;101703.69;5090412;28;20603;-68
2022/03/25 06:42:54;;;;;;;24.60;19.50;;;;;;;10.95;47.17;101697.16;5103259;28;20554;-68
2022/03/25 06:45:21;;;;;;;33.63;21.57;;;;;;;11.05;46.98;101701.75;5102523;27;20804;-69
2022/03/25 06:47:48;;;;;;;34.27;20.60;;;;;;;10.82;47.96;101705.22;5103748;28;20502;-68
2022/03/25 06:50:16;;;;;;;40.20;22.27;;;;;;;11.03;47.45;101716.22;5102248;28;20932;-68
2022/03/25 06:52:43;;;;;;;28.20;20.17;;;;;;;10.62;48.97;101717.25;5088226;28;20475;-68
2022/03/25 06:55:11;;;;;;;29.67;21.60;;;;;;;11.08;48.09;101714.09;5082713;28;20454;-69
2022/03/25 06:57:40;;;;;;;35.40;21.73;;;;;;;11.45;46.70;101716.81;5083097;28;20460;-69
2022/03/25 07:00:10;;;;;;;34.00;22.80;;;;;;;11.38;47.40;101719.06;5082461;28;20436;-69
2022/03/25 07:02:38;;;;;;;30.63;21.40;;;;;;;11.68;46.99;101716.03;5082477;28;20488;-69
2022/03/25 07:05:05;;;;;;;29.57;22.70;;;;;;;12.68;45.35;101721.13;5082333;28;21014;-69
2022/03/25 07:07:34;;;;;;;29.23;22.20;;;;;;;12.70;44.28;101715.63;5082536;28;20444;-70
